M/V Pat Voss — WDE7886 — position and weather

sailwx.info

Track history (hours):
 
Tides and Currents Weather Stations Pressure Air Temp Water Temp Dewpoint Dewpoint Depression Visibility Wind Speed Wind Dir Waves Ship Positions

M/V Pat Voss

Owner: Blessey Enterprises, Inc., Harahan, LA. More information available from US FCC via Universal Licensing System and Coast Guard Vessel Documentation Center.

Last reported at 2017-Oct-26 22:14 UTC. Time now 2017-Nov-19 10:22 UTC.
Position N 32°38' W 091°09'.
Warning: this ship's position is 23 days out of date.

Length 29 m; draft 2.9 m.

Type: Towing. MMSI: 367398930.

Date/timePositionNaut miles runAvg speedWind from/ knotsBaromVisibWave heightAir tempDewpointWater temp
2017-Oct-26 22:14N 32°38' W 091°09'1 5.1
2017-Oct-26 22:00N 32°37' W 091°09'0 0.8
2017-Oct-26 21:27N 32°36' W 091°09'0 0.1
2017-Oct-26 21:00N 32°36' W 091°09'1 3.0
2017-Oct-26 20:30N 32°35' W 091°08'3 5.3
2017-Oct-26 20:00N 32°33' W 091°06'3 5.5
2017-Oct-26 19:22N 32°30' W 091°07'2 5.3
2017-Oct-26 19:00N 32°28' W 091°06'3 5.9
2017-Oct-26 18:30N 32°26' W 091°03'3 5.5
2017-Oct-26 18:00N 32°25' W 091°00'2 4.1
2017-Oct-26 17:30N 32°23' W 090°60'2 4.5
2017-Oct-26 17:00N 32°21' W 090°59'3 5.9
2017-Oct-26 16:30N 32°21' W 090°56'2 4.3
2017-Oct-26 16:00N 32°19' W 090°54'3 5.7
2017-Oct-26 15:30N 32°17' W 090°57'3 5.3
2017-Oct-26 15:00N 32°15' W 090°59'3 5.3
2017-Oct-26 14:30N 32°12' W 090°59'3 5.4
2017-Oct-26 14:00N 32°10' W 091°00'3 5.0
2017-Oct-26 13:29N 32°07' W 091°01'2 4.9
2017-Oct-26 13:00N 32°08' W 091°04'2 4.4
2017-Oct-26 12:30N 32°07' W 091°07'5 5.2
2017-Oct-26 11:38N 32°03' W 091°03'1 6.1
2017-Oct-26 11:27N 32°02' W 091°04'15 4.0
2017-Oct-26 07:34N 31°51' W 091°17'0 5.3
2017-Oct-26 07:30N 31°51' W 091°17'3 3.1
2017-Oct-26 06:35N 31°51' W 091°21'0 4.9
2017-Oct-26 06:29N 31°50' W 091°21'2 0.0
2017-Oct-24 06:17N 31°49' W 091°21'11 7.5
2017-Oct-24 04:45N 31°57' W 091°12'2 8.6
2017-Oct-24 04:30N 31°59' W 091°11'4 8.5
2017-Oct-24 04:00N 31°59' W 091°06'5 9.1
2017-Oct-24 03:30N 32°04' W 091°03'4 8.6
2017-Oct-24 03:00N 32°07' W 091°07'3 6.8
2017-Oct-24 02:30N 32°07' W 091°03'4 7.7
2017-Oct-24 02:00N 32°10' W 091°00'4 8.8
2017-Oct-24 01:30N 32°15' W 090°59'4 8.7
2017-Oct-24 01:00N 32°18' W 090°55'3 5.8
2017-Oct-24 00:30N 32°21' W 090°56'4 7.9
2017-Oct-24 00:00N 32°22' W 091°00'4 7.6
2017-Oct-23 23:30N 32°26' W 091°01'4 8.5
2017-Oct-23 23:00N 32°27' W 091°06'4 7.4
2017-Oct-23 22:30N 32°31' W 091°06'3 1.0
2017-Oct-23 19:36N 32°34' W 091°06'0 0.4
2017-Oct-23 19:30N 32°34' W 091°06'4 5.0
2017-Oct-23 18:43N 32°30' W 091°07'1 3.6
2017-Oct-23 18:30N 32°29' W 091°07'2 4.5
2017-Oct-23 18:00N 32°27' W 091°06'3 5.2
2017-Oct-23 17:30N 32°26' W 091°03'3 5.3
2017-Oct-23 17:00N 32°25' W 091°00'2 4.3
2017-Oct-23 16:30N 32°23' W 090°60'2 4.2
2017-Oct-23 16:00N 32°21' W 090°59'3 5.6
2017-Oct-23 15:30N 32°21' W 090°56'2 4.4
2017-Oct-23 15:00N 32°19' W 090°54'3 5.7
2017-Oct-23 14:30N 32°17' W 090°57'2 5.0
2017-Oct-23 14:00N 32°15' W 090°59'3 5.5
2017-Oct-23 13:30N 32°12' W 090°59'3 5.4
2017-Oct-23 13:00N 32°10' W 091°00'3 5.2
2017-Oct-23 12:30N 32°07' W 091°01'3 5.4
2017-Oct-23 11:56N 32°08' W 091°05'2 4.2
2017-Oct-23 11:30N 32°07' W 091°06'4 5.5
2017-Oct-23 10:43N 32°03' W 091°03'1 5.6
2017-Oct-23 10:29N 32°02' W 091°04'  
2017-Oct-21 02:04N 29°50' W 091°59'0 5.8
2017-Oct-21 02:00N 29°50' W 091°60'3 5.8
2017-Oct-21 01:30N 29°49' W 092°03'3 6.4
2017-Oct-21 01:00N 29°48' W 092°06'3 6.5
2017-Oct-21 00:30N 29°47' W 092°10'2 4.5
2017-Oct-21 00:00N 29°47' W 092°12'1 2.1
2017-Oct-20 23:30N 29°48' W 092°14'0 0.2
2017-Oct-20 23:00N 29°48' W 092°14'1 2.1
2017-Oct-20 22:30N 29°48' W 092°15'3 5.7
2017-Oct-20 22:00N 29°50' W 092°18'41 4.7
2017-Oct-20 13:21N 29°56' W 093°04'2 5.8
2017-Oct-20 13:00N 29°56' W 093°07'3 5.1
2017-Oct-20 12:30N 29°56' W 093°10'3 5.7
2017-Oct-20 12:00N 29°58' W 093°12'2 4.5
2017-Oct-20 11:30N 29°60' W 093°13'2 4.1
2017-Oct-20 11:00N 30°02' W 093°15'2 3.9
2017-Oct-20 10:30N 30°03' W 093°16'2 4.8
2017-Oct-20 10:00N 30°05' W 093°18'1 1.8
2017-Oct-20 09:30N 30°06' W 093°18'0 0.1
2017-Oct-20 09:00N 30°06' W 093°18'0 0.0
2017-Oct-20 08:30N 30°06' W 093°18'0 0.0
2017-Oct-20 08:00N 30°06' W 093°18'0 0.0
2017-Oct-20 07:30N 30°06' W 093°18'0 0.0
2017-Oct-20 07:00N 30°06' W 093°18'0 0.0
2017-Oct-20 06:30N 30°06' W 093°18'0 0.0
2017-Oct-20 06:00N 30°06' W 093°18'0 0.0
2017-Oct-20 05:30N 30°06' W 093°18'0 0.0
2017-Oct-20 05:00N 30°06' W 093°18'0 0.0
2017-Oct-20 04:30N 30°06' W 093°18'0 0.0
2017-Oct-20 04:00N 30°06' W 093°18'0 0.0
2017-Oct-20 03:30N 30°06' W 093°18'0 0.0
2017-Oct-20 03:00N 30°06' W 093°18'0 0.1
2017-Oct-20 02:30N 30°06' W 093°18'0 0.0
2017-Oct-20 02:00N 30°06' W 093°18'0 0.1
2017-Oct-20 01:30N 30°06' W 093°18'0 0.1
2017-Oct-20 01:00N 30°06' W 093°18'0 0.1
2017-Oct-20 00:30N 30°06' W 093°18'0 0.0
2017-Oct-20 00:00N 30°06' W 093°18'0 0.0
2017-Oct-19 23:30N 30°06' W 093°18'0 0.0
2017-Oct-19 23:00N 30°06' W 093°18'0 0.0
2017-Oct-19 22:30N 30°06' W 093°18'0 0.0
2017-Oct-19 22:00N 30°06' W 093°18'0 0.0
2017-Oct-19 21:30N 30°06' W 093°18'0 0.0
2017-Oct-19 21:00N 30°06' W 093°18'0 0.0
2017-Oct-19 20:30N 30°06' W 093°18'0 0.0
2017-Oct-19 20:00N 30°06' W 093°18'0 0.0
2017-Oct-19 19:30N 30°06' W 093°18'0 0.0
2017-Oct-19 19:00N 30°06' W 093°18'0 0.0
2017-Oct-19 18:30N 30°06' W 093°18'0 0.1
2017-Oct-19 18:00N 30°06' W 093°18'0 0.1
2017-Oct-19 17:30N 30°06' W 093°18'0 0.8
2017-Oct-19 17:00N 30°06' W 093°19'2 4.7
2017-Oct-19 16:31N 30°04' W 093°20'0 0.1
2017-Oct-19 16:00N 30°04' W 093°20'1 1.9
2017-Oct-19 15:30N 30°05' W 093°20'3 6.9
2017-Oct-19 15:00N 30°09' W 093°20'4 7.6
2017-Oct-19 14:30N 30°12' W 093°17'3 5.4
2017-Oct-19 14:00N 30°14' W 093°15'0 0.1
2017-Oct-19 13:30N 30°14' W 093°15'0 0.0
2017-Oct-19 13:00N 30°14' W 093°15'0 0.0
2017-Oct-19 12:30N 30°14' W 093°15'0 0.0
2017-Oct-19 12:00N 30°14' W 093°15'0 0.0
2017-Oct-19 11:30N 30°14' W 093°15'0 0.0
2017-Oct-19 11:00N 30°14' W 093°15'0 0.0
2017-Oct-19 10:30N 30°14' W 093°15'0 0.0
2017-Oct-19 10:00N 30°14' W 093°15'0 0.0
2017-Oct-19 09:30N 30°14' W 093°15'0 0.0
2017-Oct-19 09:00N 30°14' W 093°15'0 0.0
2017-Oct-19 08:30N 30°14' W 093°15'0 0.0
2017-Oct-19 08:00N 30°14' W 093°15'0 0.0
2017-Oct-19 07:30N 30°14' W 093°15'0 0.0
2017-Oct-19 07:00N 30°14' W 093°15'0 0.0
2017-Oct-19 06:30N 30°14' W 093°15'0 0.0
2017-Oct-19 06:00N 30°14' W 093°15'0 0.0
2017-Oct-19 05:30N 30°14' W 093°15'0 0.0
2017-Oct-19 05:00N 30°14' W 093°15'0 0.0
2017-Oct-19 04:30N 30°14' W 093°15'0 0.0
2017-Oct-19 04:00N 30°14' W 093°15'0 0.0
2017-Oct-19 03:30N 30°14' W 093°15'0 0.0
2017-Oct-19 03:00N 30°14' W 093°15'0 0.0
2017-Oct-19 02:30N 30°14' W 093°15'0 0.0
2017-Oct-19 02:00N 30°14' W 093°15'0 0.0
2017-Oct-19 01:30N 30°14' W 093°15'0 0.1
2017-Oct-19 01:00N 30°14' W 093°15'0 0.4
2017-Oct-19 00:30N 30°14' W 093°16'1 2.6
2017-Oct-19 00:00N 30°13' W 093°16'3 6.2
2017-Oct-18 23:30N 30°11' W 093°19'3 5.8
2017-Oct-18 23:00N 30°08' W 093°20'3 6.0
2017-Oct-18 22:30N 30°05' W 093°20'1 1.3
2017-Oct-18 22:00N 30°05' W 093°20'0 0.7
2017-Oct-18 21:30N 30°04' W 093°20'2 3.9
2017-Oct-18 21:00N 30°06' W 093°20'4 7.6
2017-Oct-18 20:30N 30°10' W 093°19'4 7.8
2017-Oct-18 20:00N 30°13' W 093°16'1 2.7
2017-Oct-18 19:30N 30°14' W 093°15'0 0.1
2017-Oct-18 19:00N 30°14' W 093°15'0 0.0
2017-Oct-18 18:30N 30°14' W 093°15'0 0.0
2017-Oct-18 18:00N 30°14' W 093°15'0 0.0
2017-Oct-18 17:30N 30°14' W 093°15'0 0.0
2017-Oct-18 17:00N 30°14' W 093°15'0 0.0
2017-Oct-18 16:30N 30°14' W 093°15'0 0.0
2017-Oct-18 16:00N 30°14' W 093°15'0 0.0
2017-Oct-18 15:30N 30°14' W 093°15'0 0.0
2017-Oct-18 15:00N 30°14' W 093°15'0 0.0
2017-Oct-18 14:00N 30°14' W 093°15'0 0.0
2017-Oct-18 13:30N 30°14' W 093°15'0 0.0
2017-Oct-18 13:00N 30°14' W 093°15'0 0.0
2017-Oct-18 12:30N 30°14' W 093°15'0 0.0
2017-Oct-18 12:00N 30°14' W 093°15'0 0.0
2017-Oct-18 11:30N 30°14' W 093°15'0 0.0
2017-Oct-18 11:00N 30°14' W 093°15'0 0.0
2017-Oct-18 10:30N 30°14' W 093°15'0 0.0
2017-Oct-18 10:00N 30°14' W 093°15'0 0.0
2017-Oct-18 09:30N 30°14' W 093°15'0 0.0
2017-Oct-18 09:00N 30°14' W 093°15'0 0.0
2017-Oct-18 08:30N 30°14' W 093°15'0 0.0
2017-Oct-18 08:00N 30°14' W 093°15'0 0.0
2017-Oct-18 07:30N 30°14' W 093°15'0 0.0
2017-Oct-18 07:00N 30°14' W 093°15'0 0.0
2017-Oct-18 06:30N 30°14' W 093°15'0 0.0
2017-Oct-18 06:00N 30°14' W 093°15'0 0.0
2017-Oct-18 05:30N 30°14' W 093°15'0 0.0
2017-Oct-18 05:00N 30°14' W 093°15'0 0.0
2017-Oct-18 04:30N 30°14' W 093°15'0 0.0
2017-Oct-18 04:00N 30°14' W 093°15'0 0.0
2017-Oct-18 03:30N 30°14' W 093°15'0 0.0
2017-Oct-18 03:00N 30°14' W 093°15'0 0.0
2017-Oct-18 02:30N 30°14' W 093°15'0 0.0
2017-Oct-18 02:00N 30°14' W 093°15'0 0.0
2017-Oct-18 01:30N 30°14' W 093°15'0 0.0
2017-Oct-18 01:00N 30°14' W 093°15'0 0.0
2017-Oct-18 00:30N 30°14' W 093°15'0 0.0
2017-Oct-18 00:00N 30°14' W 093°15'0 0.0
2017-Oct-17 23:30N 30°14' W 093°15'0 0.0
2017-Oct-17 23:00N 30°14' W 093°15'0 0.0
2017-Oct-17 22:30N 30°14' W 093°15'0 0.0
2017-Oct-17 22:00N 30°14' W 093°15'0 0.0
2017-Oct-17 21:30N 30°14' W 093°15'0 0.0
2017-Oct-17 21:00N 30°14' W 093°15'0 0.0
2017-Oct-17 20:30N 30°14' W 093°15'0 0.0
2017-Oct-17 20:00N 30°14' W 093°15'0 0.0
2017-Oct-17 19:30N 30°14' W 093°15'0 0.0
2017-Oct-17 19:00N 30°14' W 093°15'0 0.0
2017-Oct-17 18:30N 30°14' W 093°15'0 0.0
2017-Oct-17 18:00N 30°14' W 093°15'0 0.0
2017-Oct-17 17:30N 30°14' W 093°15'0 0.0
2017-Oct-17 17:00N 30°14' W 093°15'0 0.0
2017-Oct-17 16:30N 30°14' W 093°15'0 0.0
2017-Oct-17 16:00N 30°14' W 093°15'0 0.0
2017-Oct-17 15:30N 30°14' W 093°15'0 0.0
2017-Oct-17 15:00N 30°14' W 093°15'0 0.0
2017-Oct-17 14:30N 30°14' W 093°15'0 0.0
2017-Oct-17 14:00N 30°14' W 093°15'0 0.1
2017-Oct-17 13:30N 30°14' W 093°15'0 0.1
2017-Oct-17 13:00N 30°14' W 093°15'0 0.0
2017-Oct-17 12:30N 30°14' W 093°15'1 1.1
2017-Oct-17 12:00N 30°14' W 093°16'0 0.1
2017-Oct-17 11:30N 30°14' W 093°16'0 0.0
2017-Oct-17 11:00N 30°14' W 093°16'0 0.1
2017-Oct-17 10:30N 30°14' W 093°16'0 0.0
2017-Oct-17 10:00N 30°14' W 093°16'0 0.4
2017-Oct-17 09:30N 30°14' W 093°16'0 0.0
2017-Oct-17 09:00N 30°14' W 093°16'1 1.3
2017-Oct-17 08:30N 30°13' W 093°16'1 1.8
2017-Oct-17 08:00N 30°12' W 093°16'2 4.1
2017-Oct-17 07:30N 30°11' W 093°18'2 3.9
2017-Oct-17 07:00N 30°09' W 093°20'2 4.1
2017-Oct-17 06:30N 30°07' W 093°20'2 3.8
2017-Oct-17 06:00N 30°06' W 093°19'0 1.0
2017-Oct-17 05:30N 30°06' W 093°19'0 0.1
2017-Oct-17 05:00N 30°06' W 093°19'0 1.0
2017-Oct-17 04:30N 30°06' W 093°18'1 2.1
2017-Oct-17 04:00N 30°05' W 093°17'1 2.3
2017-Oct-17 03:30N 30°04' W 093°16'2 3.4
2017-Oct-17 03:00N 30°03' W 093°16'2 3.6
2017-Oct-17 02:30N 30°02' W 093°14'2 3.3
2017-Oct-17 02:00N 30°00' W 093°14'2 3.9
2017-Oct-17 01:30N 29°59' W 093°12'2 3.9
2017-Oct-17 01:00N 29°57' W 093°10'1 2.8
2017-Oct-17 00:30N 29°56' W 093°09'2 3.9
2017-Oct-17 00:00N 29°56' W 093°07'2 4.1
2017-Oct-16 23:30N 29°56' W 093°05'  
Track history (hours):
 
Tides and Currents Weather Stations Pressure Air Temp Water Temp Dewpoint Dewpoint Depression Visibility Wind Speed Wind Dir Waves Ship Positions

M/V Pat Voss

Owner: Blessey Enterprises, Inc., Harahan, LA. More information available from US FCC via Universal Licensing System and Coast Guard Vessel Documentation Center.

Last reported at 2017-Oct-26 22:14 UTC. Time now 2017-Nov-19 10:22 UTC.
Position N 32°38' W 091°09'.
Warning: this ship's position is 23 days out of date.

Length 29 m; draft 2.9 m.

Type: Towing. MMSI: 367398930.

Date/timePositionNaut miles runAvg speedWind from/ knotsBaromVisibWave heightAir tempDewpointWater temp
2017-Oct-26 22:14N 32°38' W 091°09'1 5.1
2017-Oct-26 22:00N 32°37' W 091°09'0 0.8
2017-Oct-26 21:27N 32°36' W 091°09'0 0.1
2017-Oct-26 21:00N 32°36' W 091°09'1 3.0
2017-Oct-26 20:30N 32°35' W 091°08'3 5.3
2017-Oct-26 20:00N 32°33' W 091°06'3 5.5
2017-Oct-26 19:22N 32°30' W 091°07'2 5.3
2017-Oct-26 19:00N 32°28' W 091°06'3 5.9
2017-Oct-26 18:30N 32°26' W 091°03'3 5.5
2017-Oct-26 18:00N 32°25' W 091°00'2 4.1
2017-Oct-26 17:30N 32°23' W 090°60'2 4.5
2017-Oct-26 17:00N 32°21' W 090°59'3 5.9
2017-Oct-26 16:30N 32°21' W 090°56'2 4.3
2017-Oct-26 16:00N 32°19' W 090°54'3 5.7
2017-Oct-26 15:30N 32°17' W 090°57'3 5.3
2017-Oct-26 15:00N 32°15' W 090°59'3 5.3
2017-Oct-26 14:30N 32°12' W 090°59'3 5.4
2017-Oct-26 14:00N 32°10' W 091°00'3 5.0
2017-Oct-26 13:29N 32°07' W 091°01'2 4.9
2017-Oct-26 13:00N 32°08' W 091°04'2 4.4
2017-Oct-26 12:30N 32°07' W 091°07'5 5.2
2017-Oct-26 11:38N 32°03' W 091°03'1 6.1
2017-Oct-26 11:27N 32°02' W 091°04'15 4.0
2017-Oct-26 07:34N 31°51' W 091°17'0 5.3
2017-Oct-26 07:30N 31°51' W 091°17'3 3.1
2017-Oct-26 06:35N 31°51' W 091°21'0 4.9
2017-Oct-26 06:29N 31°50' W 091°21'2 0.0
2017-Oct-24 06:17N 31°49' W 091°21'11 7.5
2017-Oct-24 04:45N 31°57' W 091°12'2 8.6
2017-Oct-24 04:30N 31°59' W 091°11'4 8.5
2017-Oct-24 04:00N 31°59' W 091°06'5 9.1
2017-Oct-24 03:30N 32°04' W 091°03'4 8.6
2017-Oct-24 03:00N 32°07' W 091°07'3 6.8
2017-Oct-24 02:30N 32°07' W 091°03'4 7.7
2017-Oct-24 02:00N 32°10' W 091°00'4 8.8
2017-Oct-24 01:30N 32°15' W 090°59'4 8.7
2017-Oct-24 01:00N 32°18' W 090°55'3 5.8
2017-Oct-24 00:30N 32°21' W 090°56'4 7.9
2017-Oct-24 00:00N 32°22' W 091°00'4 7.6
2017-Oct-23 23:30N 32°26' W 091°01'4 8.5
2017-Oct-23 23:00N 32°27' W 091°06'4 7.4
2017-Oct-23 22:30N 32°31' W 091°06'3 1.0
2017-Oct-23 19:36N 32°34' W 091°06'0 0.4
2017-Oct-23 19:30N 32°34' W 091°06'4 5.0
2017-Oct-23 18:43N 32°30' W 091°07'1 3.6
2017-Oct-23 18:30N 32°29' W 091°07'2 4.5
2017-Oct-23 18:00N 32°27' W 091°06'3 5.2
2017-Oct-23 17:30N 32°26' W 091°03'3 5.3
2017-Oct-23 17:00N 32°25' W 091°00'2 4.3
2017-Oct-23 16:30N 32°23' W 090°60'2 4.2
2017-Oct-23 16:00N 32°21' W 090°59'3 5.6
2017-Oct-23 15:30N 32°21' W 090°56'2 4.4
2017-Oct-23 15:00N 32°19' W 090°54'3 5.7
2017-Oct-23 14:30N 32°17' W 090°57'2 5.0
2017-Oct-23 14:00N 32°15' W 090°59'3 5.5
2017-Oct-23 13:30N 32°12' W 090°59'3 5.4
2017-Oct-23 13:00N 32°10' W 091°00'3 5.2
2017-Oct-23 12:30N 32°07' W 091°01'3 5.4
2017-Oct-23 11:56N 32°08' W 091°05'2 4.2
2017-Oct-23 11:30N 32°07' W 091°06'4 5.5
2017-Oct-23 10:43N 32°03' W 091°03'1 5.6
2017-Oct-23 10:29N 32°02' W 091°04'  
2017-Oct-21 02:04N 29°50' W 091°59'0 5.8
2017-Oct-21 02:00N 29°50' W 091°60'3 5.8
2017-Oct-21 01:30N 29°49' W 092°03'3 6.4
2017-Oct-21 01:00N 29°48' W 092°06'3 6.5
2017-Oct-21 00:30N 29°47' W 092°10'2 4.5
2017-Oct-21 00:00N 29°47' W 092°12'1 2.1
2017-Oct-20 23:30N 29°48' W 092°14'0 0.2
2017-Oct-20 23:00N 29°48' W 092°14'1 2.1
2017-Oct-20 22:30N 29°48' W 092°15'3 5.7
2017-Oct-20 22:00N 29°50' W 092°18'41 4.7
2017-Oct-20 13:21N 29°56' W 093°04'2 5.8
2017-Oct-20 13:00N 29°56' W 093°07'3 5.1
2017-Oct-20 12:30N 29°56' W 093°10'3 5.7
2017-Oct-20 12:00N 29°58' W 093°12'2 4.5
2017-Oct-20 11:30N 29°60' W 093°13'2 4.1
2017-Oct-20 11:00N 30°02' W 093°15'2 3.9
2017-Oct-20 10:30N 30°03' W 093°16'2 4.8
2017-Oct-20 10:00N 30°05' W 093°18'1 1.8
2017-Oct-20 09:30N 30°06' W 093°18'0 0.1
2017-Oct-20 09:00N 30°06' W 093°18'0 0.0
2017-Oct-20 08:30N 30°06' W 093°18'0 0.0
2017-Oct-20 08:00N 30°06' W 093°18'0 0.0
2017-Oct-20 07:30N 30°06' W 093°18'0 0.0
2017-Oct-20 07:00N 30°06' W 093°18'0 0.0
2017-Oct-20 06:30N 30°06' W 093°18'0 0.0
2017-Oct-20 06:00N 30°06' W 093°18'0 0.0
2017-Oct-20 05:30N 30°06' W 093°18'0 0.0
2017-Oct-20 05:00N 30°06' W 093°18'0 0.0
2017-Oct-20 04:30N 30°06' W 093°18'0 0.0
2017-Oct-20 04:00N 30°06' W 093°18'0 0.0
2017-Oct-20 03:30N 30°06' W 093°18'0 0.0
2017-Oct-20 03:00N 30°06' W 093°18'0 0.1
2017-Oct-20 02:30N 30°06' W 093°18'0 0.0
2017-Oct-20 02:00N 30°06' W 093°18'0 0.1
2017-Oct-20 01:30N 30°06' W 093°18'0 0.1
2017-Oct-20 01:00N 30°06' W 093°18'0 0.1
2017-Oct-20 00:30N 30°06' W 093°18'0 0.0
2017-Oct-20 00:00N 30°06' W 093°18'0 0.0
2017-Oct-19 23:30N 30°06' W 093°18'0 0.0
2017-Oct-19 23:00N 30°06' W 093°18'0 0.0
2017-Oct-19 22:30N 30°06' W 093°18'0 0.0
2017-Oct-19 22:00N 30°06' W 093°18'0 0.0
2017-Oct-19 21:30N 30°06' W 093°18'0 0.0
2017-Oct-19 21:00N 30°06' W 093°18'0 0.0
2017-Oct-19 20:30N 30°06' W 093°18'0 0.0
2017-Oct-19 20:00N 30°06' W 093°18'0 0.0
2017-Oct-19 19:30N 30°06' W 093°18'0 0.0
2017-Oct-19 19:00N 30°06' W 093°18'0 0.0
2017-Oct-19 18:30N 30°06' W 093°18'0 0.1
2017-Oct-19 18:00N 30°06' W 093°18'0 0.1
2017-Oct-19 17:30N 30°06' W 093°18'0 0.8
2017-Oct-19 17:00N 30°06' W 093°19'2 4.7
2017-Oct-19 16:31N 30°04' W 093°20'0 0.1
2017-Oct-19 16:00N 30°04' W 093°20'1 1.9
2017-Oct-19 15:30N 30°05' W 093°20'3 6.9
2017-Oct-19 15:00N 30°09' W 093°20'4 7.6
2017-Oct-19 14:30N 30°12' W 093°17'3 5.4
2017-Oct-19 14:00N 30°14' W 093°15'0 0.1
2017-Oct-19 13:30N 30°14' W 093°15'0 0.0
2017-Oct-19 13:00N 30°14' W 093°15'0 0.0
2017-Oct-19 12:30N 30°14' W 093°15'0 0.0
2017-Oct-19 12:00N 30°14' W 093°15'0 0.0
2017-Oct-19 11:30N 30°14' W 093°15'0 0.0
2017-Oct-19 11:00N 30°14' W 093°15'0 0.0
2017-Oct-19 10:30N 30°14' W 093°15'0 0.0
2017-Oct-19 10:00N 30°14' W 093°15'0 0.0
2017-Oct-19 09:30N 30°14' W 093°15'0 0.0
2017-Oct-19 09:00N 30°14' W 093°15'0 0.0
2017-Oct-19 08:30N 30°14' W 093°15'0 0.0
2017-Oct-19 08:00N 30°14' W 093°15'0 0.0
2017-Oct-19 07:30N 30°14' W 093°15'0 0.0
2017-Oct-19 07:00N 30°14' W 093°15'0 0.0
2017-Oct-19 06:30N 30°14' W 093°15'0 0.0
2017-Oct-19 06:00N 30°14' W 093°15'0 0.0
2017-Oct-19 05:30N 30°14' W 093°15'0 0.0
2017-Oct-19 05:00N 30°14' W 093°15'0 0.0
2017-Oct-19 04:30N 30°14' W 093°15'0 0.0
2017-Oct-19 04:00N 30°14' W 093°15'0 0.0
2017-Oct-19 03:30N 30°14' W 093°15'0 0.0
2017-Oct-19 03:00N 30°14' W 093°15'0 0.0
2017-Oct-19 02:30N 30°14' W 093°15'0 0.0
2017-Oct-19 02:00N 30°14' W 093°15'0 0.0
2017-Oct-19 01:30N 30°14' W 093°15'0 0.1
2017-Oct-19 01:00N 30°14' W 093°15'0 0.4
2017-Oct-19 00:30N 30°14' W 093°16'1 2.6
2017-Oct-19 00:00N 30°13' W 093°16'3 6.2
2017-Oct-18 23:30N 30°11' W 093°19'3 5.8
2017-Oct-18 23:00N 30°08' W 093°20'3 6.0
2017-Oct-18 22:30N 30°05' W 093°20'1 1.3
2017-Oct-18 22:00N 30°05' W 093°20'0 0.7
2017-Oct-18 21:30N 30°04' W 093°20'2 3.9
2017-Oct-18 21:00N 30°06' W 093°20'4 7.6
2017-Oct-18 20:30N 30°10' W 093°19'4 7.8
2017-Oct-18 20:00N 30°13' W 093°16'1 2.7
2017-Oct-18 19:30N 30°14' W 093°15'0 0.1
2017-Oct-18 19:00N 30°14' W 093°15'0 0.0
2017-Oct-18 18:30N 30°14' W 093°15'0 0.0
2017-Oct-18 18:00N 30°14' W 093°15'0 0.0
2017-Oct-18 17:30N 30°14' W 093°15'0 0.0
2017-Oct-18 17:00N 30°14' W 093°15'0 0.0
2017-Oct-18 16:30N 30°14' W 093°15'0 0.0
2017-Oct-18 16:00N 30°14' W 093°15'0 0.0
2017-Oct-18 15:30N 30°14' W 093°15'0 0.0
2017-Oct-18 15:00N 30°14' W 093°15'0 0.0
2017-Oct-18 14:00N 30°14' W 093°15'0 0.0
2017-Oct-18 13:30N 30°14' W 093°15'0 0.0
2017-Oct-18 13:00N 30°14' W 093°15'0 0.0
2017-Oct-18 12:30N 30°14' W 093°15'0 0.0
2017-Oct-18 12:00N 30°14' W 093°15'0 0.0
2017-Oct-18 11:30N 30°14' W 093°15'0 0.0
2017-Oct-18 11:00N 30°14' W 093°15'0 0.0
2017-Oct-18 10:30N 30°14' W 093°15'0 0.0
2017-Oct-18 10:00N 30°14' W 093°15'0 0.0
2017-Oct-18 09:30N 30°14' W 093°15'0 0.0
2017-Oct-18 09:00N 30°14' W 093°15'0 0.0
2017-Oct-18 08:30N 30°14' W 093°15'0 0.0
2017-Oct-18 08:00N 30°14' W 093°15'0 0.0
2017-Oct-18 07:30N 30°14' W 093°15'0 0.0
2017-Oct-18 07:00N 30°14' W 093°15'0 0.0
2017-Oct-18 06:30N 30°14' W 093°15'0 0.0
2017-Oct-18 06:00N 30°14' W 093°15'0 0.0
2017-Oct-18 05:30N 30°14' W 093°15'0 0.0
2017-Oct-18 05:00N 30°14' W 093°15'0 0.0
2017-Oct-18 04:30N 30°14' W 093°15'0 0.0
2017-Oct-18 04:00N 30°14' W 093°15'0 0.0
2017-Oct-18 03:30N 30°14' W 093°15'0 0.0
2017-Oct-18 03:00N 30°14' W 093°15'0 0.0
2017-Oct-18 02:30N 30°14' W 093°15'0 0.0
2017-Oct-18 02:00N 30°14' W 093°15'0 0.0
2017-Oct-18 01:30N 30°14' W 093°15'0 0.0
2017-Oct-18 01:00N 30°14' W 093°15'0 0.0
2017-Oct-18 00:30N 30°14' W 093°15'0 0.0
2017-Oct-18 00:00N 30°14' W 093°15'0 0.0
2017-Oct-17 23:30N 30°14' W 093°15'0 0.0
2017-Oct-17 23:00N 30°14' W 093°15'0 0.0
2017-Oct-17 22:30N 30°14' W 093°15'0 0.0
2017-Oct-17 22:00N 30°14' W 093°15'0 0.0
2017-Oct-17 21:30N 30°14' W 093°15'0 0.0
2017-Oct-17 21:00N 30°14' W 093°15'0 0.0
2017-Oct-17 20:30N 30°14' W 093°15'0 0.0
2017-Oct-17 20:00N 30°14' W 093°15'0 0.0
2017-Oct-17 19:30N 30°14' W 093°15'0 0.0
2017-Oct-17 19:00N 30°14' W 093°15'0 0.0
2017-Oct-17 18:30N 30°14' W 093°15'0 0.0
2017-Oct-17 18:00N 30°14' W 093°15'0 0.0
2017-Oct-17 17:30N 30°14' W 093°15'0 0.0
2017-Oct-17 17:00N 30°14' W 093°15'0 0.0
2017-Oct-17 16:30N 30°14' W 093°15'0 0.0
2017-Oct-17 16:00N 30°14' W 093°15'0 0.0
2017-Oct-17 15:30N 30°14' W 093°15'0 0.0
2017-Oct-17 15:00N 30°14' W 093°15'0 0.0
2017-Oct-17 14:30N 30°14' W 093°15'0 0.0
2017-Oct-17 14:00N 30°14' W 093°15'0 0.1
2017-Oct-17 13:30N 30°14' W 093°15'0 0.1
2017-Oct-17 13:00N 30°14' W 093°15'0 0.0
2017-Oct-17 12:30N 30°14' W 093°15'1 1.1
2017-Oct-17 12:00N 30°14' W 093°16'0 0.1
2017-Oct-17 11:30N 30°14' W 093°16'0 0.0
2017-Oct-17 11:00N 30°14' W 093°16'0 0.1
2017-Oct-17 10:30N 30°14' W 093°16'0 0.0
2017-Oct-17 10:00N 30°14' W 093°16'0 0.4
2017-Oct-17 09:30N 30°14' W 093°16'0 0.0
2017-Oct-17 09:00N 30°14' W 093°16'1 1.3
2017-Oct-17 08:30N 30°13' W 093°16'1 1.8
2017-Oct-17 08:00N 30°12' W 093°16'2 4.1
2017-Oct-17 07:30N 30°11' W 093°18'2 3.9
2017-Oct-17 07:00N 30°09' W 093°20'2 4.1
2017-Oct-17 06:30N 30°07' W 093°20'2 3.8
2017-Oct-17 06:00N 30°06' W 093°19'0 1.0
2017-Oct-17 05:30N 30°06' W 093°19'0 0.1
2017-Oct-17 05:00N 30°06' W 093°19'0 1.0
2017-Oct-17 04:30N 30°06' W 093°18'1 2.1
2017-Oct-17 04:00N 30°05' W 093°17'1 2.3
2017-Oct-17 03:30N 30°04' W 093°16'2 3.4
2017-Oct-17 03:00N 30°03' W 093°16'2 3.6
2017-Oct-17 02:30N 30°02' W 093°14'2 3.3
2017-Oct-17 02:00N 30°00' W 093°14'2 3.9
2017-Oct-17 01:30N 29°59' W 093°12'2 3.9
2017-Oct-17 01:00N 29°57' W 093°10'1 2.8
2017-Oct-17 00:30N 29°56' W 093°09'2 3.9
2017-Oct-17 00:00N 29°56' W 093°07'2 4.1
2017-Oct-16 23:30N 29°56' W 093°05'  

Dump ship's entire track history